createdAt,value
2023-05-07T05:04:59.957Z,73.38
2023-05-07T05:10:03.827Z,73.59
2023-05-07T05:15:08.678Z,73.07
2023-05-07T05:20:11.973Z,73.32
2023-05-07T05:25:15.579Z,73.38
2023-05-07T05:30:17.659Z,73.16
2023-05-07T05:35:21.706Z,73.07
2023-05-07T05:40:24.224Z,73.07
2023-05-07T05:45:25.903Z,73.39
2023-05-07T05:50:27.417Z,73.15
2023-05-07T05:55:30.514Z,73.12
2023-05-07T06:00:33.094Z,73.10
2023-05-07T06:05:38.999Z,73.32
2023-05-07T06:10:40.955Z,73.38
2023-05-07T06:15:43.764Z,73.10
2023-05-07T06:20:47.939Z,72.80
2023-05-07T06:25:58.382Z,72.63
2023-05-07T06:31:16.210Z,72.86
2023-05-07T06:36:21.480Z,73.09
2023-05-07T06:41:23.279Z,73.09
2023-05-07T06:46:24.938Z,72.53
2023-05-07T06:51:26.602Z,72.42
2023-05-07T06:56:28.126Z,72.52
2023-05-07T07:01:30.258Z,72.53
2023-05-07T07:06:33.195Z,72.43
2023-05-07T07:11:36.852Z,72.04
2023-05-07T07:16:39.159Z,72.64
2023-05-07T07:21:40.987Z,72.17
2023-05-07T07:26:43.624Z,72.08
2023-05-07T07:31:45.599Z,71.66
2023-05-07T07:36:47.562Z,71.53
2023-05-07T07:41:52.671Z,71.73
2023-05-07T07:46:59.463Z,71.62
2023-05-07T07:52:02.690Z,71.23
2023-05-07T07:57:06.039Z,71.16
2023-05-07T08:02:09.049Z,71.01
2023-05-07T08:07:13.193Z,71.32
2023-05-07T08:12:21.267Z,71.00
2023-05-07T08:17:23.709Z,71.20
2023-05-07T08:22:29.689Z,71.16
2023-05-07T08:27:31.240Z,70.36
2023-05-07T08:32:36.420Z,70.51
2023-05-07T08:37:38.022Z,70.34
2023-05-07T08:42:48.135Z,70.16
2023-05-07T08:48:12.122Z,70.39
2023-05-07T08:53:15.119Z,70.39
2023-05-07T08:58:17.125Z,69.68
2023-05-07T09:03:21.943Z,69.78
2023-05-07T09:08:34.412Z,69.71
2023-05-07T09:13:41.454Z,69.65
2023-05-07T09:18:51.656Z,69.14
2023-05-07T09:23:56.123Z,68.56
2023-05-07T09:29:08.896Z,68.61
2023-05-07T09:34:26.139Z,68.78
2023-05-07T09:39:55.038Z,68.48
2023-05-07T09:45:09.099Z,68.53
2023-05-07T09:50:20.249Z,68.60
2023-05-07T09:55:40.467Z,68.39
2023-05-07T10:00:49.480Z,67.96
2023-05-07T10:05:55.505Z,67.62
2023-05-07T10:11:00.562Z,67.01
2023-05-07T10:16:13.315Z,67.05
2023-05-07T10:21:25.145Z,66.23
2023-05-07T10:26:42.060Z,66.23
2023-05-07T10:32:19.907Z,65.37
2023-05-07T10:37:28.710Z,65.46
2023-05-07T10:42:34.749Z,64.64
2023-05-07T10:47:36.803Z,65.05
2023-05-07T10:52:38.474Z,64.55
2023-05-07T10:57:52.198Z,64.25
2023-05-07T11:03:16.102Z,64.16
2023-05-07T11:08:39.098Z,63.87
2023-05-07T11:13:53.285Z,63.35
2023-05-07T11:19:11.205Z,63.27
2023-05-07T11:24:31.982Z,63.25
2023-05-07T11:29:47.508Z,63.18
2023-05-07T11:35:11.698Z,63.28
2023-05-07T11:40:40.985Z,63.62
2023-05-07T11:45:48.215Z,63.88
2023-05-07T11:51:06.167Z,63.45
2023-05-07T11:56:24.143Z,63.39
2023-05-07T12:01:36.101Z,62.93
2023-05-07T12:06:52.632Z,62.62
2023-05-07T12:12:06.580Z,61.78
2023-05-07T12:17:24.628Z,61.49
2023-05-07T12:22:47.540Z,61.05
2023-05-07T12:28:16.903Z,61.79
2023-05-07T12:33:26.738Z,61.93
2023-05-07T12:38:41.686Z,61.96
2023-05-07T12:43:58.279Z,61.40
2023-05-07T12:48:59.878Z,61.75
2023-05-07T12:54:22.242Z,61.15
2023-05-07T12:59:49.666Z,61.27
2023-05-07T13:05:28.021Z,61.64
2023-05-07T13:10:50.494Z,61.41
2023-05-07T13:16:01.418Z,62.20
2023-05-07T13:21:15.456Z,61.60
2023-05-07T13:26:52.018Z,60.61
2023-05-07T13:32:05.814Z,60.60
2023-05-07T13:37:22.332Z,60.79
2023-05-07T13:42:38.928Z,60.51
2023-05-07T13:47:59.787Z,59.96
2023-05-07T13:53:22.776Z,59.73
2023-05-07T13:58:36.543Z,60.02
2023-05-07T14:04:07.744Z,59.79
2023-05-07T14:10:05.900Z,59.68
2023-05-07T14:15:34.229Z,60.00
2023-05-07T14:20:53.870Z,60.08
2023-05-07T14:26:19.627Z,59.61
2023-05-07T14:31:51.921Z,59.65
2023-05-07T14:42:42.864Z,60.11
2023-05-07T14:48:12.415Z,59.13
2023-05-07T14:53:22.805Z,58.87
2023-05-07T14:58:30.333Z,58.27
2023-05-07T15:03:50.804Z,58.88
2023-05-07T15:09:22.214Z,58.92
2023-05-07T15:15:09.550Z,58.84
2023-05-07T15:20:29.067Z,58.39
2023-05-07T15:31:29.860Z,59.21
2023-05-07T15:37:33.303Z,59.09
2023-05-07T15:43:33.271Z,59.39
2023-05-07T15:48:58.843Z,60.07
2023-05-07T15:54:12.144Z,59.58
2023-05-07T15:59:59.766Z,59.22
2023-05-07T16:05:25.956Z,59.67
2023-05-07T16:11:00.503Z,59.71
2023-05-07T16:16:20.060Z,59.94
2023-05-07T16:22:07.162Z,59.75
2023-05-07T16:27:39.042Z,60.05
2023-05-07T16:32:58.723Z,60.11
2023-05-07T16:39:12.385Z,58.62
2023-05-07T16:44:54.516Z,58.19
2023-05-07T16:50:16.650Z,56.64
2023-05-07T16:55:58.255Z,56.60
2023-05-07T17:01:39.631Z,57.04
2023-05-07T17:13:08.679Z,58.29
2023-05-07T17:18:56.703Z,58.41
2023-05-07T17:30:25.133Z,58.97
2023-05-07T17:36:17.155Z,59.01
2023-05-07T17:42:30.250Z,59.09
2023-05-07T17:54:25.727Z,59.66
2023-05-07T18:12:57.961Z,59.82
2023-05-07T18:18:42.285Z,59.98
2023-05-07T18:24:02.654Z,59.91
2023-05-07T18:29:04.101Z,59.84
2023-05-07T18:34:06.304Z,60.21
2023-05-07T18:39:08.578Z,60.13
2023-05-07T18:44:10.046Z,60.42
2023-05-07T18:49:11.514Z,60.71
2023-05-07T18:54:12.960Z,60.79
2023-05-07T18:59:14.486Z,60.89
2023-05-07T19:04:17.950Z,60.60
2023-05-07T19:09:19.552Z,60.99
2023-05-07T19:14:21.183Z,61.40
2023-05-07T19:19:22.976Z,61.76
2023-05-07T19:24:24.382Z,61.43
2023-05-07T19:29:25.828Z,61.90
2023-05-07T19:34:27.359Z,62.19
2023-05-07T19:39:28.804Z,62.22
2023-05-07T19:44:30.260Z,62.54
2023-05-07T19:49:31.740Z,62.29
2023-05-07T19:54:33.350Z,62.21
2023-05-07T19:59:34.837Z,62.28
2023-05-07T20:04:38.063Z,62.55
2023-05-07T20:09:39.598Z,62.48
2023-05-07T20:14:41.250Z,63.25
2023-05-07T20:19:42.734Z,63.32
2023-05-07T20:24:46.899Z,63.02
2023-05-07T20:29:48.746Z,63.39
2023-05-07T20:34:50.182Z,63.67
2023-05-07T20:39:51.703Z,63.46
2023-05-07T20:44:53.308Z,63.33
2023-05-07T20:49:55.056Z,63.50
2023-05-07T20:54:56.478Z,63.58
2023-05-07T20:59:57.954Z,63.43
2023-05-07T21:04:59.380Z,63.50
2023-05-07T21:10:00.969Z,63.41
2023-05-07T21:15:02.415Z,63.47
2023-05-07T21:20:04.212Z,63.74
2023-05-07T21:25:06.023Z,63.74
2023-05-07T21:30:08.155Z,63.80
2023-05-07T21:35:09.590Z,64.09
2023-05-07T21:40:11.626Z,63.85
2023-05-07T21:45:13.393Z,64.06
2023-05-07T21:50:15.152Z,63.88
2023-05-07T21:55:20.489Z,63.90
